Time,TemperatureF,DewpointF,PressureIn,WindDirection,WindDirectionDegrees,WindSpeedMPH,WindSpeedGustMPH,Humidity,HourlyPrecipIn,Conditions,Clouds,dailyrainin,SoftwareType,DateUTC
2013-11-05 00:00:00,43.7,36.3,30.16,South,180,8.1,8.1,75,0.00,CLR,,0.09,WeatherDisplay:10.37,2013-11-05 05:00:00,
2013-11-05 00:01:00,43.7,36.3,30.16,South,180,5.8,5.8,75,0.00,RA,,0.00,WeatherDisplay:10.37,2013-11-05 05:01:00,
2013-11-05 00:06:00,43.7,36.3,30.16,South,180,3.5,3.5,75,0.00,RA,,0.00,WeatherDisplay:10.37,2013-11-05 05:06:00,
2013-11-05 00:11:00,43.5,36.5,30.16,SW,225,8.1,8.1,76,0.00,CLR,,0.00,WeatherDisplay:10.37,2013-11-05 05:11:00,
2013-11-05 00:16:00,43.5,36.8,30.17,SW,225,8.1,8.1,77,0.00,CLR,,0.00,WeatherDisplay:10.37,2013-11-05 05:16:00,
2013-11-05 00:21:00,43.5,36.8,30.16,SW,225,5.8,5.8,77,0.00,CLR,,0.00,WeatherDisplay:10.37,2013-11-05 05:21:00,
2013-11-05 00:26:00,43.5,36.8,30.16,SE,135,8.1,8.1,77,0.00,CLR,,0.00,WeatherDisplay:10.37,2013-11-05 05:26:00,
2013-11-05 00:31:00,43.5,37.1,30.17,South,180,9.2,9.2,78,0.00,CLR,,0.00,WeatherDisplay:10.37,2013-11-05 05:31:00,
2013-11-05 00:36:00,43.5,37.1,30.16,South,180,8.1,8.1,78,0.00,CLR,,0.00,WeatherDisplay:10.37,2013-11-05 05:36:00,
2013-11-05 00:41:00,43.7,37.6,30.17,SW,225,9.2,9.2,79,0.00,CLR,,0.00,WeatherDisplay:10.37,2013-11-05 05:41:00,
2013-11-05 00:46:00,43.9,37.8,30.17,South,180,11.5,11.5,79,0.00,CLR,,0.00,WeatherDisplay:10.37,2013-11-05 05:46:00,
2013-11-05 00:51:00,44.1,38.0,30.17,South,180,8.1,8.1,79,0.00,CLR,,0.00,WeatherDisplay:10.37,2013-11-05 05:51:00,
2013-11-05 00:56:00,44.2,38.1,30.16,SW,225,8.1,8.1,79,0.00,CLR,,0.00,WeatherDisplay:10.37,2013-11-05 05:56:00,
2013-11-05 01:01:00,44.6,38.5,30.17,South,180,6.9,6.9,79,0.00,CLR,,0.00,WeatherDisplay:10.37,2013-11-05 06:01:00,
2013-11-05 01:06:00,44.6,38.5,30.17,South,180,5.8,5.8,79,0.00,CLR,,0.00,WeatherDisplay:10.37,2013-11-05 06:06:00,
2013-11-05 01:11:00,45.1,39.3,30.17,SSW,202,10.4,10.4,80,0.00,CLR,,0.00,WeatherDisplay:10.37,2013-11-05 06:11:00,
2013-11-05 01:16:00,45.5,39.7,30.16,South,180,11.5,11.5,80,0.00,CLR,,0.00,WeatherDisplay:10.37,2013-11-05 06:16:00,
2013-11-05 01:21:00,45.9,40.0,30.17,South,180,11.4,11.4,80,0.00,CLR,,0.00,WeatherDisplay:10.37,2013-11-05 06:21:00,
2013-11-05 01:26:00,46.2,40.4,30.18,SW,225,10.4,10.4,80,0.00,CLR,,0.00,WeatherDisplay:10.37,2013-11-05 06:26:00,
2013-11-05 01:31:00,46.6,40.7,30.17,SSW,202,12.7,12.7,80,0.00,CLR,,0.00,WeatherDisplay:10.37,2013-11-05 06:31:00,
2013-11-05 01:36:00,46.8,40.9,30.17,SW,225,10.4,10.4,80,0.00,CLR,,0.00,WeatherDisplay:10.37,2013-11-05 06:36:00,
2013-11-05 01:41:00,47.1,41.3,30.17,SW,225,17.3,17.3,80,0.00,CLR,,0.00,WeatherDisplay:10.37,2013-11-05 06:41:00,
2013-11-05 01:46:00,47.3,41.1,30.17,South,180,10.4,10.4,79,0.00,CLR,,0.00,WeatherDisplay:10.37,2013-11-05 06:46:00,
2013-11-05 01:51:00,47.5,41.3,30.17,SW,225,11.5,11.5,79,0.00,CLR,,0.00,WeatherDisplay:10.37,2013-11-05 06:51:00,
2013-11-05 01:56:00,47.5,41.3,30.16,SW,225,9.2,9.2,79,0.00,CLR,,0.00,WeatherDisplay:10.37,2013-11-05 06:56:00,
2013-11-05 02:01:00,47.7,41.5,30.17,South,180,10.4,10.4,79,0.00,CLR,,0.00,WeatherDisplay:10.37,2013-11-05 07:01:00,
2013-11-05 02:06:00,47.7,41.5,30.17,South,180,10.4,10.4,79,0.00,CLR,,0.00,WeatherDisplay:10.37,2013-11-05 07:06:00,
2013-11-05 02:11:00,47.7,41.5,30.16,South,180,8.1,8.1,79,0.00,CLR,,0.00,WeatherDisplay:10.37,2013-11-05 07:11:00,
2013-11-05 02:16:00,47.7,41.5,30.16,South,180,8.1,8.1,79,0.00,CLR,,0.00,WeatherDisplay:10.37,2013-11-05 07:16:00,
2013-11-05 02:21:00,47.7,41.5,30.16,SE,135,5.8,5.8,79,0.00,CLR,,0.00,WeatherDisplay:10.37,2013-11-05 07:21:00,
2013-11-05 02:26:00,47.7,41.5,30.16,WSW,248,8.1,8.1,79,0.00,CLR,,0.00,WeatherDisplay:10.37,2013-11-05 07:26:00,
2013-11-05 02:31:00,47.7,41.5,30.16,South,180,5.8,5.8,79,0.00,CLR,,0.00,WeatherDisplay:10.37,2013-11-05 07:31:00,
2013-11-05 02:36:00,47.7,41.5,30.16,South,180,8.1,8.1,79,0.00,CLR,,0.00,WeatherDisplay:10.37,2013-11-05 07:36:00,
2013-11-05 02:41:00,47.7,41.8,30.16,South,180,10.4,10.4,80,0.00,CLR,,0.00,WeatherDisplay:10.37,2013-11-05 07:41:00,
2013-11-05 02:46:00,47.7,41.8,30.16,South,180,6.9,6.9,80,0.00,CLR,,0.00,WeatherDisplay:10.37,2013-11-05 07:46:00,
2013-11-05 02:51:00,47.7,41.8,30.16,SSW,202,10.4,10.4,80,0.00,CLR,,0.00,WeatherDisplay:10.37,2013-11-05 07:51:00,
2013-11-05 02:56:00,47.8,42.0,30.16,South,180,10.4,10.4,80,0.00,CLR,,0.00,WeatherDisplay:10.37,2013-11-05 07:56:00,
2013-11-05 03:01:00,48.0,42.1,30.16,SW,225,8.1,8.1,80,0.00,CLR,,0.00,WeatherDisplay:10.37,2013-11-05 08:01:00,
2013-11-05 03:06:00,48.0,42.1,30.16,SW,225,8.1,8.1,80,0.00,CLR,,0.00,WeatherDisplay:10.37,2013-11-05 08:06:00,
2013-11-05 03:11:00,48.2,42.3,30.16,South,180,10.4,10.4,80,0.00,CLR,,0.00,WeatherDisplay:10.37,2013-11-05 08:11:00,
2013-11-05 03:16:00,48.4,42.8,30.17,SW,225,8.1,8.1,81,0.00,CLR,,0.00,WeatherDisplay:10.37,2013-11-05 08:16:00,
2013-11-05 03:21:00,48.4,42.8,30.17,SW,225,9.2,9.2,81,0.00,CLR,,0.00,WeatherDisplay:10.37,2013-11-05 08:21:00,
2013-11-05 03:26:00,48.4,42.8,30.16,SW,225,10.4,10.4,81,0.00,CLR,,0.00,WeatherDisplay:10.37,2013-11-05 08:26:00,
2013-11-05 03:31:00,48.6,43.0,30.17,South,180,6.9,6.9,81,0.00,CLR,,0.00,WeatherDisplay:10.37,2013-11-05 08:31:00,
2013-11-05 03:36:00,48.7,43.2,30.17,South,180,11.5,11.5,81,0.00,CLR,,0.00,WeatherDisplay:10.37,2013-11-05 08:36:00,
2013-11-05 03:41:00,48.7,43.2,30.17,South,180,10.4,10.4,81,0.00,CLR,,0.00,WeatherDisplay:10.37,2013-11-05 08:41:00,
2013-11-05 03:46:00,48.9,43.3,30.17,SSW,202,8.1,8.1,81,0.00,CLR,,0.00,WeatherDisplay:10.37,2013-11-05 08:46:00,
2013-11-05 03:51:00,48.9,43.0,30.17,SW,225,12.7,12.7,80,0.00,CLR,,0.00,WeatherDisplay:10.37,2013-11-05 08:51:00,
2013-11-05 03:56:00,48.9,43.0,30.17,South,180,8.1,8.1,80,0.00,CLR,,0.00,WeatherDisplay:10.37,2013-11-05 08:56:00,
2013-11-05 04:01:00,48.9,43.0,30.16,South,180,9.2,9.2,80,0.00,CLR,,0.00,WeatherDisplay:10.37,2013-11-05 09:01:00,
2013-11-05 04:06:00,48.9,43.0,30.16,South,180,8.3,8.3,80,0.00,CLR,,0.00,WeatherDisplay:10.37,2013-11-05 09:06:00,
2013-11-05 04:11:00,49.1,43.2,30.17,South,180,10.4,10.4,80,0.00,CLR,,0.00,WeatherDisplay:10.37,2013-11-05 09:11:00,
2013-11-05 04:17:00,48.9,43.0,30.17,SW,225,8.1,8.1,80,0.00,CLR,,0.00,WeatherDisplay:10.37,2013-11-05 09:17:00,
2013-11-05 04:22:00,48.9,43.0,30.17,SW,225,8.1,8.1,80,0.00,CLR,,0.00,WeatherDisplay:10.37,2013-11-05 09:22:00,
2013-11-05 04:27:00,48.9,43.0,30.17,South,180,9.2,9.2,80,0.00,CLR,,0.00,WeatherDisplay:10.37,2013-11-05 09:27:00,
2013-11-05 04:32:00,48.9,43.3,30.17,SW,225,5.8,5.8,81,0.00,CLR,,0.00,WeatherDisplay:10.37,2013-11-05 09:32:00,
2013-11-05 04:37:00,48.9,43.3,30.17,SSW,202,8.1,8.1,81,0.00,CLR,,0.00,WeatherDisplay:10.37,2013-11-05 09:37:00,
2013-11-05 04:42:00,48.9,43.3,30.17,South,180,9.2,9.2,81,0.00,CLR,,0.00,WeatherDisplay:10.37,2013-11-05 09:42:00,
2013-11-05 04:47:00,48.9,43.3,30.18,South,180,10.4,10.4,81,0.00,CLR,,0.00,WeatherDisplay:10.37,2013-11-05 09:47:00,
2013-11-05 04:52:00,48.9,43.3,30.18,South,180,8.1,8.1,81,0.00,CLR,,0.00,WeatherDisplay:10.37,2013-11-05 09:52:00,
2013-11-05 04:57:00,48.9,43.3,30.18,SW,225,8.1,8.1,81,0.00,CLR,,0.00,WeatherDisplay:10.37,2013-11-05 09:57:00,
2013-11-05 05:02:00,48.9,43.3,30.18,SW,225,8.3,8.3,81,0.00,CLR,,0.00,WeatherDisplay:10.37,2013-11-05 10:02:00,
2013-11-05 05:07:00,48.9,43.3,30.18,SW,225,8.1,8.1,81,0.00,CLR,,0.00,WeatherDisplay:10.37,2013-11-05 10:07:00,
2013-11-05 05:12:00,48.9,43.3,30.18,South,180,8.1,8.1,81,0.00,CLR,,0.00,WeatherDisplay:10.37,2013-11-05 10:12:00,
2013-11-05 05:17:00,48.7,43.2,30.18,West,270,8.1,8.1,81,0.00,CLR,,0.00,WeatherDisplay:10.37,2013-11-05 10:17:00,
2013-11-05 05:22:00,48.7,43.5,30.18,South,180,5.8,5.8,82,0.00,CLR,,0.00,WeatherDisplay:10.37,2013-11-05 10:22:00,
2013-11-05 05:27:00,49.1,43.8,30.19,SSW,202,6.9,6.9,82,0.00,CLR,,0.00,WeatherDisplay:10.37,2013-11-05 10:27:00,
2013-11-05 05:32:00,48.7,43.5,30.19,SW,225,9.2,9.2,82,0.00,CLR,,0.00,WeatherDisplay:10.37,2013-11-05 10:32:00,
2013-11-05 05:37:00,48.9,43.7,30.19,SW,225,8.1,8.1,82,0.00,CLR,,0.00,WeatherDisplay:10.37,2013-11-05 10:37:00,
2013-11-05 05:42:00,48.9,43.7,30.19,South,180,6.9,6.9,82,0.00,CLR,,0.00,WeatherDisplay:10.37,2013-11-05 10:42:00,
2013-11-05 05:47:00,48.9,43.7,30.18,South,180,6.9,6.9,82,0.00,CLR,,0.00,WeatherDisplay:10.37,2013-11-05 10:47:00,
2013-11-05 05:52:00,48.9,43.7,30.18,SW,225,5.8,5.8,82,0.00,CLR,,0.00,WeatherDisplay:10.37,2013-11-05 10:52:00,
2013-11-05 05:57:00,48.9,43.7,30.19,SSW,202,4.6,4.6,82,0.00,CLR,,0.00,WeatherDisplay:10.37,2013-11-05 10:57:00,
2013-11-05 06:02:00,48.9,43.7,30.18,South,180,3.5,3.5,82,0.00,CLR,,0.00,WeatherDisplay:10.37,2013-11-05 11:02:00,
2013-11-05 06:07:00,48.9,43.7,30.19,South,180,3.5,3.5,82,0.00,CLR,,0.00,WeatherDisplay:10.37,2013-11-05 11:07:00,
2013-11-05 06:12:00,48.9,43.7,30.18,South,180,3.5,3.5,82,0.00,CLR,,0.00,WeatherDisplay:10.37,2013-11-05 11:12:00,
2013-11-05 06:17:00,48.9,44.0,30.19,SW,225,4.6,4.6,83,0.00,CLR,,0.00,WeatherDisplay:10.37,2013-11-05 11:17:00,
2013-11-05 06:22:00,48.7,43.8,30.19,SSW,202,3.5,3.5,83,0.00,CLR,,0.00,WeatherDisplay:10.37,2013-11-05 11:22:00,
2013-11-05 06:27:00,48.7,43.8,30.19,WSW,248,5.8,5.8,83,0.00,CLR,,0.00,WeatherDisplay:10.37,2013-11-05 11:27:00,
2013-11-05 06:32:00,48.7,43.8,30.19,South,180,5.8,5.8,83,0.00,CLR,,0.00,WeatherDisplay:10.37,2013-11-05 11:32:00,
2013-11-05 06:37:00,48.7,43.8,30.19,South,180,4.6,4.6,83,0.00,CLR,,0.00,WeatherDisplay:10.37,2013-11-05 11:37:00,
2013-11-05 06:42:00,48.7,43.8,30.19,South,180,5.8,5.8,83,0.00,CLR,,0.00,WeatherDisplay:10.37,2013-11-05 11:42:00,
2013-11-05 06:47:00,48.7,43.8,30.20,SE,135,5.8,5.8,83,0.00,CLR,,0.00,WeatherDisplay:10.37,2013-11-05 11:47:00,
2013-11-05 06:52:00,48.7,43.8,30.20,SW,225,8.1,8.1,83,0.00,CLR,,0.00,WeatherDisplay:10.37,2013-11-05 11:52:00,
2013-11-05 06:57:00,48.7,43.8,30.21,West,270,5.8,6.0,83,0.00,CLR,,0.00,WeatherDisplay:10.37,2013-11-05 11:57:00,
2013-11-05 07:02:00,48.7,43.8,30.20,South,180,6.9,6.9,83,0.00,CLR,,0.00,WeatherDisplay:10.37,2013-11-05 12:02:00,
2013-11-05 07:07:00,48.7,43.8,30.21,South,180,6.9,6.9,83,0.00,CLR,,0.00,WeatherDisplay:10.37,2013-11-05 12:07:00,
2013-11-05 07:12:00,48.7,44.1,30.20,West,270,5.8,5.8,84,0.00,CLR,,0.00,WeatherDisplay:10.37,2013-11-05 12:12:00,
2013-11-05 07:17:00,48.7,44.1,30.20,South,180,4.6,4.6,84,0.00,CLR,,0.00,WeatherDisplay:10.37,2013-11-05 12:17:00,
2013-11-05 07:22:00,48.7,44.1,30.20,South,180,5.8,5.8,84,0.00,CLR,,0.00,WeatherDisplay:10.37,2013-11-05 12:22:00,
2013-11-05 07:27:00,48.7,44.1,30.20,South,180,5.8,5.8,84,0.00,CLR,,0.00,WeatherDisplay:10.37,2013-11-05 12:27:00,
2013-11-05 07:32:00,48.7,44.1,30.21,South,180,4.6,4.6,84,0.00,CLR,,0.00,WeatherDisplay:10.37,2013-11-05 12:32:00,
2013-11-05 07:37:00,48.7,44.1,30.21,SW,225,5.8,5.8,84,0.00,CLR,,0.00,WeatherDisplay:10.37,2013-11-05 12:37:00,
2013-11-05 07:42:00,48.9,44.3,30.21,SSW,202,5.8,5.8,84,0.00,CLR,,0.00,WeatherDisplay:10.37,2013-11-05 12:42:00,
2013-11-05 07:47:00,48.9,44.3,30.21,SW,225,5.8,5.8,84,0.00,CLR,,0.00,WeatherDisplay:10.37,2013-11-05 12:47:00,
2013-11-05 07:52:00,48.9,44.3,30.21,SSW,202,8.1,8.1,84,0.00,CLR,,0.00,WeatherDisplay:10.37,2013-11-05 12:52:00,
2013-11-05 07:57:00,49.1,44.5,30.21,South,180,5.8,5.8,84,0.00,CLR,,0.00,WeatherDisplay:10.37,2013-11-05 12:57:00,
2013-11-05 08:02:00,49.1,44.5,30.21,South,180,3.5,3.5,84,0.00,CLR,,0.00,WeatherDisplay:10.37,2013-11-05 13:02:00,
2013-11-05 08:07:00,49.1,44.5,30.21,SSW,202,3.5,3.5,84,0.00,CLR,,0.00,WeatherDisplay:10.37,2013-11-05 13:07:00,
2013-11-05 08:12:00,49.3,44.6,30.22,South,180,5.8,5.8,84,0.00,CLR,,0.00,WeatherDisplay:10.37,2013-11-05 13:12:00,
2013-11-05 08:17:00,49.5,44.8,30.21,SSW,202,5.8,6.0,84,0.00,CLR,,0.00,WeatherDisplay:10.37,2013-11-05 13:17:00,
2013-11-05 08:22:00,49.5,44.8,30.22,South,180,6.9,6.9,84,0.00,CLR,,0.00,WeatherDisplay:10.37,2013-11-05 13:22:00,
2013-11-05 08:27:00,49.6,45.0,30.21,South,180,8.1,8.1,84,0.00,CLR,,0.00,WeatherDisplay:10.37,2013-11-05 13:27:00,
2013-11-05 08:32:00,49.8,45.2,30.21,SW,225,6.9,6.9,84,0.00,CLR,,0.00,WeatherDisplay:10.37,2013-11-05 13:32:00,
2013-11-05 08:37:00,50.0,45.4,30.21,South,180,6.9,6.9,84,0.00,CLR,,0.00,WeatherDisplay:10.37,2013-11-05 13:37:00,
2013-11-05 08:42:00,50.2,45.5,30.21,SW,225,5.8,5.8,84,0.00,CLR,,0.00,WeatherDisplay:10.37,2013-11-05 13:42:00,
2013-11-05 08:47:00,50.4,45.7,30.21,SW,225,4.6,4.6,84,0.00,CLR,,0.00,WeatherDisplay:10.37,2013-11-05 13:47:00,
2013-11-05 08:52:00,50.5,45.6,30.21,SW,225,4.6,4.6,83,0.00,CLR,,0.00,WeatherDisplay:10.37,2013-11-05 13:52:00,
2013-11-05 08:57:00,50.7,45.7,30.21,SW,225,4.6,4.6,83,0.00,CLR,,0.00,WeatherDisplay:10.37,2013-11-05 13:57:00,
2013-11-05 09:02:00,50.9,45.9,30.21,SW,225,8.1,8.1,83,0.00,CLR,,0.00,WeatherDisplay:10.37,2013-11-05 14:02:00,
2013-11-05 09:07:00,50.9,45.9,30.21,SW,225,8.1,8.1,83,0.00,CLR,,0.00,WeatherDisplay:10.37,2013-11-05 14:07:00,
2013-11-05 09:12:00,51.4,46.1,30.22,SSW,202,8.1,8.1,82,0.00,CLR,,0.00,WeatherDisplay:10.37,2013-11-05 14:12:00,
2013-11-05 09:17:00,51.8,46.5,30.21,SW,225,8.1,8.1,82,0.00,CLR,,0.00,WeatherDisplay:10.37,2013-11-05 14:17:00,
2013-11-05 09:22:00,52.0,46.3,30.21,SW,225,9.2,9.2,81,0.00,CLR,,0.00,WeatherDisplay:10.37,2013-11-05 14:22:00,
2013-11-05 09:27:00,52.0,46.3,30.22,SW,225,8.1,8.1,81,0.00,CLR,,0.00,WeatherDisplay:10.37,2013-11-05 14:27:00,
2013-11-05 09:32:00,52.2,46.5,30.22,SSW,202,8.1,8.1,81,0.00,CLR,,0.00,WeatherDisplay:10.37,2013-11-05 14:32:00,
2013-11-05 09:37:00,52.3,46.7,30.22,SW,225,9.2,9.2,81,0.00,CLR,,0.00,WeatherDisplay:10.37,2013-11-05 14:37:00,
2013-11-05 09:42:00,52.3,46.4,30.21,SW,225,9.2,9.2,80,0.00,CLR,,0.00,WeatherDisplay:10.37,2013-11-05 14:42:00,
2013-11-05 09:47:00,52.5,46.5,30.22,SSW,202,10.4,10.4,80,0.00,CLR,,0.00,WeatherDisplay:10.37,2013-11-05 14:47:00,
2013-11-05 09:52:00,52.7,46.7,30.22,SW,225,6.9,6.9,80,0.00,CLR,,0.00,WeatherDisplay:10.37,2013-11-05 14:52:00,
2013-11-05 09:57:00,52.9,46.9,30.22,SW,225,11.5,11.5,80,0.00,CLR,,0.00,WeatherDisplay:10.37,2013-11-05 14:57:00,
2013-11-05 10:02:00,53.1,47.1,30.22,South,180,5.8,5.8,80,0.00,CLR,,0.00,WeatherDisplay:10.37,2013-11-05 15:02:00,
2013-11-05 10:07:00,53.1,47.1,30.22,South,180,5.8,5.8,80,0.00,CLR,,0.00,WeatherDisplay:10.37,2013-11-05 15:07:00,
2013-11-05 10:12:00,53.2,46.9,30.22,SW,225,8.1,8.1,79,0.00,CLR,,0.00,WeatherDisplay:10.37,2013-11-05 15:12:00,
2013-11-05 10:17:00,53.4,47.1,30.22,SW,225,8.1,8.1,79,0.00,CLR,,0.00,WeatherDisplay:10.37,2013-11-05 15:17:00,
2013-11-05 10:22:00,53.6,47.2,30.22,SW,225,9.2,9.2,79,0.00,CLR,,0.00,WeatherDisplay:10.37,2013-11-05 15:22:00,
2013-11-05 10:27:00,53.8,47.4,30.22,SW,225,5.8,6.9,79,0.00,CLR,,0.00,WeatherDisplay:10.37,2013-11-05 15:27:00,
2013-11-05 10:32:00,54.0,47.3,30.22,SW,225,10.4,10.4,78,0.00,CLR,,0.00,WeatherDisplay:10.37,2013-11-05 15:32:00,
2013-11-05 10:37:00,54.3,47.6,30.22,SW,225,9.2,9.2,78,0.00,CLR,,0.00,WeatherDisplay:10.37,2013-11-05 15:37:00,
2013-11-05 10:42:00,54.5,47.4,30.22,SW,225,10.4,10.4,77,0.00,CLR,,0.00,WeatherDisplay:10.37,2013-11-05 15:42:00,
2013-11-05 10:47:00,54.7,47.6,30.22,SW,225,10.4,10.4,77,0.00,CLR,,0.00,WeatherDisplay:10.37,2013-11-05 15:47:00,
2013-11-05 10:52:00,55.0,47.6,30.22,South,180,13.8,13.8,76,0.00,CLR,,0.00,WeatherDisplay:10.37,2013-11-05 15:52:00,
2013-11-05 10:57:00,55.4,48.0,30.22,SW,225,10.4,10.4,76,0.00,CLR,,0.00,WeatherDisplay:10.37,2013-11-05 15:57:00,
2013-11-05 11:02:00,55.8,48.0,30.22,South,180,10.4,10.4,75,0.00,CLR,,0.00,WeatherDisplay:10.37,2013-11-05 16:02:00,
2013-11-05 11:07:00,56.5,48.6,30.22,SW,225,10.4,10.4,75,0.00,CLR,,0.00,WeatherDisplay:10.37,2013-11-05 16:07:00,
2013-11-05 11:12:00,57.0,48.8,30.22,SW,225,10.4,10.4,74,0.00,CLR,,0.00,WeatherDisplay:10.37,2013-11-05 16:12:00,
2013-11-05 11:17:00,57.2,48.6,30.22,South,180,11.5,11.5,73,0.00,CLR,,0.00,WeatherDisplay:10.37,2013-11-05 16:17:00,
2013-11-05 11:22:00,57.6,49.0,30.21,SSW,202,13.8,13.8,73,0.00,CLR,,0.00,WeatherDisplay:10.37,2013-11-05 16:22:00,
2013-11-05 11:27:00,57.6,48.6,30.22,SW,225,13.8,13.8,72,0.00,CLR,,0.00,WeatherDisplay:10.37,2013-11-05 16:27:00,
2013-11-05 11:32:00,57.9,48.9,30.22,SW,225,12.7,12.7,72,0.00,CLR,,0.00,WeatherDisplay:10.37,2013-11-05 16:32:00,
2013-11-05 11:37:00,58.3,49.3,30.22,SW,225,10.4,10.4,72,0.00,CLR,,0.00,WeatherDisplay:10.37,2013-11-05 16:37:00,
2013-11-05 11:42:00,58.8,49.4,30.22,SSW,202,9.8,9.8,71,0.00,CLR,,0.00,WeatherDisplay:10.37,2013-11-05 16:42:00,
2013-11-05 12:52:00,57.7,48.4,30.20,South,180,11.5,11.5,71,0.00,CLR,,0.00,WeatherDisplay:10.37,2013-11-05 17:52:00,
2013-11-05 12:57:00,57.6,48.2,30.19,South,180,10.4,10.4,71,0.00,CLR,,0.00,WeatherDisplay:10.37,2013-11-05 17:57:00,
2013-11-05 13:02:00,57.6,48.2,30.19,SW,225,13.8,13.8,71,0.00,CLR,,0.00,WeatherDisplay:10.37,2013-11-05 18:02:00,
2013-11-05 13:07:00,57.6,48.2,30.18,SW,225,13.8,13.8,71,0.00,CLR,,0.00,WeatherDisplay:10.37,2013-11-05 18:07:00,
2013-11-05 13:12:00,57.6,48.2,30.18,SW,225,8.1,8.1,71,0.00,CLR,,0.00,WeatherDisplay:10.37,2013-11-05 18:12:00,
2013-11-05 13:17:00,57.7,48.4,30.18,SW,225,8.1,8.1,71,0.00,CLR,,0.00,WeatherDisplay:10.37,2013-11-05 18:17:00,
2013-11-05 13:22:00,57.9,48.9,30.18,SW,225,11.5,11.5,72,0.00,CLR,,0.00,WeatherDisplay:10.37,2013-11-05 18:22:00,
2013-11-05 13:27:00,58.1,48.7,30.18,SW,225,8.1,8.1,71,0.00,CLR,,0.00,WeatherDisplay:10.37,2013-11-05 18:27:00,
2013-11-05 13:32:00,58.1,48.7,30.18,SW,225,8.1,8.1,71,0.00,CLR,,0.00,WeatherDisplay:10.37,2013-11-05 18:32:00,
2013-11-05 13:37:00,58.3,48.9,30.17,SW,225,5.8,5.8,71,0.00,CLR,,0.00,WeatherDisplay:10.37,2013-11-05 18:37:00,
2013-11-05 13:42:00,58.5,49.1,30.17,SW,225,11.5,11.5,71,0.00,CLR,,0.00,WeatherDisplay:10.37,2013-11-05 18:42:00,
2013-11-05 13:47:00,58.5,48.7,30.18,South,180,8.1,8.1,70,0.00,CLR,,0.00,WeatherDisplay:10.37,2013-11-05 18:47:00,
2013-11-05 13:52:00,58.5,48.7,30.18,SW,225,8.1,8.1,70,0.00,CLR,,0.00,WeatherDisplay:10.37,2013-11-05 18:52:00,
2013-11-05 13:57:00,58.5,48.7,30.18,South,180,8.1,8.1,70,0.00,CLR,,0.00,WeatherDisplay:10.37,2013-11-05 18:57:00,
2013-11-05 14:02:00,58.5,48.7,30.18,South,180,6.9,6.9,70,0.00,CLR,,0.00,WeatherDisplay:10.37,2013-11-05 19:02:00,
2013-11-05 14:07:00,58.5,48.7,30.18,South,180,6.9,6.9,70,0.00,CLR,,0.00,WeatherDisplay:10.37,2013-11-05 19:07:00,
2013-11-05 14:12:00,58.5,48.7,30.17,South,180,5.8,5.8,70,0.00,CLR,,0.00,WeatherDisplay:10.37,2013-11-05 19:12:00,
2013-11-05 14:17:00,58.5,48.7,30.17,South,180,8.1,8.1,70,0.00,CLR,,0.00,WeatherDisplay:10.37,2013-11-05 19:17:00,
2013-11-05 14:22:00,58.6,48.9,30.17,South,180,5.8,5.8,70,0.00,CLR,,0.00,WeatherDisplay:10.37,2013-11-05 19:22:00,
2013-11-05 14:27:00,58.8,49.1,30.18,SW,225,10.4,10.4,70,0.00,CLR,,0.00,WeatherDisplay:10.37,2013-11-05 19:27:00,
2013-11-05 14:32:00,58.6,48.9,30.17,South,180,9.2,9.2,70,0.00,CLR,,0.00,WeatherDisplay:10.37,2013-11-05 19:32:00,
2013-11-05 14:37:00,58.5,48.7,30.17,SW,225,10.4,10.4,70,0.00,CLR,,0.00,WeatherDisplay:10.37,2013-11-05 19:37:00,
2013-11-05 14:42:00,58.3,48.5,30.17,WSW,248,10.4,10.4,70,0.00,CLR,,0.00,WeatherDisplay:10.37,2013-11-05 19:42:00,
2013-11-05 14:47:00,58.1,48.4,30.18,SW,225,10.4,10.4,70,0.00,CLR,,0.00,WeatherDisplay:10.37,2013-11-05 19:47:00,
2013-11-05 14:52:00,58.1,48.7,30.17,SW,225,8.1,8.1,71,0.00,CLR,,0.00,WeatherDisplay:10.37,2013-11-05 19:52:00,
2013-11-05 14:57:00,58.1,48.7,30.17,SW,225,8.1,8.1,71,0.00,CLR,,0.00,WeatherDisplay:10.37,2013-11-05 19:57:00,
2013-11-05 15:02:00,58.1,48.7,30.17,SW,225,8.1,8.1,71,0.00,CLR,,0.00,WeatherDisplay:10.37,2013-11-05 20:02:00,
2013-11-05 15:07:00,58.1,48.7,30.17,SW,225,8.1,8.1,71,0.00,CLR,,0.00,WeatherDisplay:10.37,2013-11-05 20:07:00,
2013-11-05 15:12:00,57.7,48.4,30.17,SW,225,9.2,9.2,71,0.00,CLR,,0.00,WeatherDisplay:10.37,2013-11-05 20:12:00,
2013-11-05 15:17:00,57.6,48.2,30.17,SW,225,15.0,15.0,71,0.00,CLR,,0.00,WeatherDisplay:10.37,2013-11-05 20:17:00,
2013-11-05 15:22:00,57.2,48.3,30.17,SW,225,10.4,10.4,72,0.00,CLR,,0.00,WeatherDisplay:10.37,2013-11-05 20:22:00,
2013-11-05 15:27:00,57.2,48.3,30.17,SW,225,12.7,12.7,72,0.00,CLR,,0.00,WeatherDisplay:10.37,2013-11-05 20:27:00,
2013-11-05 15:32:00,57.0,48.1,30.17,SW,225,13.8,13.8,72,0.00,CLR,,0.00,WeatherDisplay:10.37,2013-11-05 20:32:00,
2013-11-05 15:37:00,57.0,48.1,30.17,SSW,202,10.4,10.4,72,0.00,CLR,,0.00,WeatherDisplay:10.37,2013-11-05 20:37:00,
2013-11-05 15:42:00,56.8,48.3,30.17,SW,225,9.2,9.2,73,0.00,CLR,,0.00,WeatherDisplay:10.37,2013-11-05 20:42:00,
2013-11-05 15:47:00,56.7,48.1,30.17,SW,225,9.2,9.2,73,0.00,CLR,,0.00,WeatherDisplay:10.37,2013-11-05 20:47:00,
2013-11-05 15:52:00,56.5,47.9,30.17,South,180,8.1,8.1,73,0.00,CLR,,0.00,WeatherDisplay:10.37,2013-11-05 20:52:00,
2013-11-05 15:57:00,56.5,47.9,30.16,SSW,202,12.7,12.7,73,0.00,CLR,,0.00,WeatherDisplay:10.37,2013-11-05 20:57:00,
2013-11-05 16:02:00,56.5,48.3,30.16,South,180,8.1,8.1,74,0.00,CLR,,0.00,WeatherDisplay:10.37,2013-11-05 21:02:00,
2013-11-05 16:07:00,56.3,48.1,30.16,SW,225,8.1,8.1,74,0.00,CLR,,0.00,WeatherDisplay:10.37,2013-11-05 21:07:00,
2013-11-05 16:12:00,56.3,48.1,30.16,SSW,202,10.4,10.4,74,0.00,CLR,,0.00,WeatherDisplay:10.37,2013-11-05 21:12:00,
2013-11-05 16:17:00,56.1,47.9,30.16,South,180,8.1,8.1,74,0.00,CLR,,0.00,WeatherDisplay:10.37,2013-11-05 21:17:00,
2013-11-05 16:22:00,55.9,48.1,30.16,South,180,13.8,13.8,75,0.00,CLR,,0.00,WeatherDisplay:10.37,2013-11-05 21:22:00,
2013-11-05 16:27:00,55.8,48.0,30.15,South,180,10.4,10.4,75,0.00,CLR,,0.00,WeatherDisplay:10.37,2013-11-05 21:27:00,
2013-11-05 16:32:00,55.6,47.8,30.16,South,180,12.7,12.7,75,0.00,CLR,,0.00,WeatherDisplay:10.37,2013-11-05 21:32:00,
2013-11-05 16:37:00,55.4,48.0,30.15,SSW,202,8.1,8.1,76,0.00,CLR,,0.00,WeatherDisplay:10.37,2013-11-05 21:37:00,
2013-11-05 16:42:00,55.2,47.8,30.15,South,180,11.5,11.5,76,0.00,CLR,,0.00,WeatherDisplay:10.37,2013-11-05 21:42:00,
2013-11-05 16:47:00,55.2,47.8,30.15,SW,225,8.1,8.1,76,0.00,CLR,,0.00,WeatherDisplay:10.37,2013-11-05 21:47:00,
2013-11-05 16:52:00,55.0,48.0,30.15,SW,225,9.2,9.2,77,0.00,CLR,,0.00,WeatherDisplay:10.37,2013-11-05 21:52:00,
2013-11-05 16:57:00,54.9,47.8,30.16,SW,225,8.1,8.1,77,0.00,CLR,,0.00,WeatherDisplay:10.37,2013-11-05 21:57:00,
2013-11-05 17:02:00,54.9,47.8,30.16,South,180,9.2,9.2,77,0.00,CLR,,0.00,WeatherDisplay:10.37,2013-11-05 22:02:00,
2013-11-05 17:07:00,54.7,48.0,30.15,SSW,202,9.2,9.2,78,0.00,CLR,,0.00,WeatherDisplay:10.37,2013-11-05 22:07:00,
2013-11-05 17:12:00,54.5,47.8,30.16,SSW,202,9.2,9.2,78,0.00,CLR,,0.00,WeatherDisplay:10.37,2013-11-05 22:12:00,
2013-11-05 17:17:00,54.3,47.9,30.15,South,180,8.1,8.1,79,0.00,CLR,,0.00,WeatherDisplay:10.37,2013-11-05 22:17:00,
2013-11-05 17:22:00,54.3,47.9,30.15,South,180,8.1,8.1,79,0.00,CLR,,0.00,WeatherDisplay:10.37,2013-11-05 22:22:00,
2013-11-05 17:27:00,54.1,48.1,30.15,South,180,8.1,8.1,80,0.00,CLR,,0.00,WeatherDisplay:10.37,2013-11-05 22:27:00,
2013-11-05 17:32:00,54.1,48.1,30.14,South,180,5.8,5.8,80,0.00,CLR,,0.00,WeatherDisplay:10.37,2013-11-05 22:32:00,
2013-11-05 17:37:00,54.0,47.9,30.14,SE,135,5.8,5.8,80,0.00,CLR,,0.00,WeatherDisplay:10.37,2013-11-05 22:37:00,
2013-11-05 17:42:00,53.8,48.1,30.14,South,180,8.1,8.1,81,0.00,CLR,,0.00,WeatherDisplay:10.37,2013-11-05 22:42:00,
2013-11-05 17:47:00,53.8,48.1,30.15,South,180,5.8,5.8,81,0.00,CLR,,0.00,WeatherDisplay:10.37,2013-11-05 22:47:00,
2013-11-05 17:52:00,53.6,47.9,30.15,South,180,5.8,5.8,81,0.00,CLR,,0.00,WeatherDisplay:10.37,2013-11-05 22:52:00,
2013-11-05 17:57:00,53.4,48.1,30.15,South,180,5.8,5.8,82,0.00,CLR,,0.00,WeatherDisplay:10.37,2013-11-05 22:57:00,
2013-11-05 18:02:00,53.4,48.1,30.14,SSE,158,6.9,6.9,82,0.00,CLR,,0.00,WeatherDisplay:10.37,2013-11-05 23:02:00,
2013-11-05 18:07:00,53.2,47.9,30.14,South,180,6.9,6.9,82,0.00,CLR,,0.00,WeatherDisplay:10.37,2013-11-05 23:07:00,
2013-11-05 18:12:00,53.1,48.0,30.14,SSW,202,8.3,8.3,83,0.00,CLR,,0.00,WeatherDisplay:10.37,2013-11-05 23:12:00,
2013-11-05 18:17:00,52.9,47.9,30.14,SW,225,9.2,9.2,83,0.00,CLR,,0.00,WeatherDisplay:10.37,2013-11-05 23:17:00,
2013-11-05 18:22:00,52.9,48.2,30.14,SW,225,6.9,6.9,84,0.00,CLR,,0.00,WeatherDisplay:10.37,2013-11-05 23:22:00,
2013-11-05 18:27:00,52.9,48.2,30.14,SE,135,6.9,6.9,84,0.00,CLR,,0.00,WeatherDisplay:10.37,2013-11-05 23:27:00,
2013-11-05 18:32:00,52.9,48.5,30.13,SE,135,4.6,4.6,85,0.00,CLR,,0.00,WeatherDisplay:10.37,2013-11-05 23:32:00,
2013-11-05 18:37:00,52.7,48.3,30.13,South,180,5.8,5.8,85,0.00,CLR,,0.00,WeatherDisplay:10.37,2013-11-05 23:37:00,
2013-11-05 18:42:00,52.7,48.3,30.13,SW,225,4.6,4.6,85,0.00,CLR,,0.00,WeatherDisplay:10.37,2013-11-05 23:42:00,
2013-11-05 18:47:00,52.7,48.6,30.14,South,180,4.6,4.6,86,0.00,CLR,,0.00,WeatherDisplay:10.37,2013-11-05 23:47:00,
2013-11-05 18:52:00,52.7,48.6,30.14,South,180,8.1,8.1,86,0.00,CLR,,0.00,WeatherDisplay:10.37,2013-11-05 23:52:00,
2013-11-05 18:57:00,52.7,48.9,30.14,SSW,202,9.2,9.2,87,0.00,CLR,,0.00,WeatherDisplay:10.37,2013-11-05 23:57:00,
2013-11-05 19:02:00,52.7,48.9,30.14,SE,135,8.1,8.1,87,0.00,CLR,,0.00,WeatherDisplay:10.37,2013-11-06 00:02:00,
2013-11-05 19:07:00,52.7,48.9,30.13,SE,135,8.3,8.3,87,0.00,CLR,,0.00,WeatherDisplay:10.37,2013-11-06 00:07:00,
2013-11-05 19:12:00,52.5,49.1,30.13,SW,225,10.4,10.4,88,0.00,CLR,,0.00,WeatherDisplay:10.37,2013-11-06 00:12:00,
2013-11-05 19:17:00,52.3,48.9,30.12,SW,225,10.4,10.4,88,0.00,CLR,,0.00,WeatherDisplay:10.37,2013-11-06 00:17:00,
2013-11-05 19:22:00,52.3,48.9,30.12,SW,225,8.1,8.1,88,0.00,CLR,,0.00,WeatherDisplay:10.37,2013-11-06 00:22:00,
2013-11-05 19:28:00,52.3,49.2,30.12,South,180,10.4,10.4,89,0.00,CLR,,0.00,WeatherDisplay:10.37,2013-11-06 00:28:00,
2013-11-05 19:33:00,52.3,49.2,30.13,South,180,9.2,9.2,89,0.00,CLR,,0.00,WeatherDisplay:10.37,2013-11-06 00:33:00,
2013-11-05 19:38:00,52.3,49.2,30.13,SW,225,6.9,6.9,89,0.00,CLR,,0.00,WeatherDisplay:10.37,2013-11-06 00:38:00,
2013-11-05 19:43:00,52.3,49.2,30.12,South,180,6.9,6.9,89,0.00,CLR,,0.00,WeatherDisplay:10.37,2013-11-06 00:43:00,
2013-11-05 19:48:00,52.2,49.3,30.12,SW,225,5.8,5.8,90,0.00,CLR,,0.00,WeatherDisplay:10.37,2013-11-06 00:48:00,
2013-11-05 19:53:00,52.2,49.3,30.12,SW,225,8.1,8.1,90,0.00,CLR,,0.00,WeatherDisplay:10.37,2013-11-06 00:53:00,
2013-11-05 19:58:00,52.0,49.1,30.12,South,180,8.1,8.1,90,0.00,CLR,,0.00,WeatherDisplay:10.37,2013-11-06 00:58:00,
2013-11-05 20:03:00,52.0,49.1,30.11,South,180,8.3,8.3,90,0.00,CLR,,0.00,WeatherDisplay:10.37,2013-11-06 01:03:00,
2013-11-05 20:08:00,52.0,49.4,30.12,SW,225,8.1,8.1,91,0.00,CLR,,0.00,WeatherDisplay:10.37,2013-11-06 01:08:00,
2013-11-05 20:13:00,52.2,49.6,30.12,SE,135,4.6,4.6,91,0.00,CLR,,0.00,WeatherDisplay:10.37,2013-11-06 01:13:00,
2013-11-05 20:18:00,52.2,49.6,30.11,East,90,10.4,10.4,91,0.00,CLR,,0.00,WeatherDisplay:10.37,2013-11-06 01:18:00,
2013-11-05 20:23:00,52.2,49.6,30.11,South,180,6.9,6.9,91,0.00,CLR,,0.00,WeatherDisplay:10.37,2013-11-06 01:23:00,
2013-11-05 20:28:00,52.2,49.6,30.11,South,180,6.9,6.9,91,0.00,CLR,,0.00,WeatherDisplay:10.37,2013-11-06 01:28:00,
2013-11-05 20:33:00,52.2,49.6,30.11,SSE,158,8.1,8.1,91,0.00,CLR,,0.00,WeatherDisplay:10.37,2013-11-06 01:33:00,
2013-11-05 20:38:00,52.2,49.6,30.11,SSE,158,11.5,11.5,91,0.00,CLR,,0.00,WeatherDisplay:10.37,2013-11-06 01:38:00,
2013-11-05 20:43:00,52.2,49.6,30.10,SSW,202,8.1,8.1,91,0.00,CLR,,0.00,WeatherDisplay:10.37,2013-11-06 01:43:00,
2013-11-05 20:48:00,52.2,49.6,30.10,SE,135,8.1,8.1,91,0.00,CLR,,0.00,WeatherDisplay:10.37,2013-11-06 01:48:00,
2013-11-05 20:53:00,52.0,49.4,30.10,SE,135,5.8,5.8,91,0.00,CLR,,0.00,WeatherDisplay:10.37,2013-11-06 01:53:00,
2013-11-05 20:58:00,52.0,49.7,30.10,South,180,10.7,10.7,92,0.00,CLR,,0.00,WeatherDisplay:10.37,2013-11-06 01:58:00,
2013-11-05 21:03:00,52.2,49.9,30.10,SW,225,10.4,10.4,92,0.00,CLR,,0.00,WeatherDisplay:10.37,2013-11-06 02:03:00,
2013-11-05 21:08:00,52.3,50.1,30.10,SSE,158,10.4,10.4,92,0.00,CLR,,0.00,WeatherDisplay:10.37,2013-11-06 02:08:00,
2013-11-05 21:13:00,52.3,50.1,30.10,South,180,11.5,11.5,92,0.00,CLR,,0.00,WeatherDisplay:10.37,2013-11-06 02:13:00,
2013-11-05 21:18:00,52.3,50.4,30.09,South,180,9.2,9.2,93,0.00,CLR,,0.00,WeatherDisplay:10.37,2013-11-06 02:18:00,
2013-11-05 21:23:00,52.5,50.6,30.09,South,180,10.4,10.4,93,0.00,CLR,,0.00,WeatherDisplay:10.37,2013-11-06 02:23:00,
2013-11-05 21:28:00,52.5,50.6,30.09,SSE,158,10.4,10.4,93,0.00,CLR,,0.00,WeatherDisplay:10.37,2013-11-06 02:28:00,
2013-11-05 21:33:00,52.5,50.6,30.10,South,180,9.8,9.8,93,0.00,CLR,,0.00,WeatherDisplay:10.37,2013-11-06 02:33:00,
2013-11-05 21:38:00,52.5,50.6,30.09,SW,225,8.1,8.1,93,0.00,CLR,,0.00,WeatherDisplay:10.37,2013-11-06 02:38:00,
2013-11-05 21:43:00,52.5,50.6,30.09,East,90,10.4,10.4,93,0.00,CLR,,0.00,WeatherDisplay:10.37,2013-11-06 02:43:00,
2013-11-05 21:48:00,52.5,50.6,30.08,SW,225,10.4,10.4,93,0.00,CLR,,0.00,WeatherDisplay:10.37,2013-11-06 02:48:00,
2013-11-05 21:53:00,52.7,50.7,30.09,SE,135,10.4,10.4,93,0.00,CLR,,0.00,WeatherDisplay:10.37,2013-11-06 02:53:00,
2013-11-05 21:58:00,52.5,50.6,30.08,SW,225,10.4,10.4,93,0.00,CLR,,0.00,WeatherDisplay:10.37,2013-11-06 02:58:00,
2013-11-05 22:03:00,52.5,50.6,30.08,SSW,202,11.5,11.5,93,0.00,CLR,,0.00,WeatherDisplay:10.37,2013-11-06 03:03:00,
2013-11-05 22:08:00,52.7,50.4,30.08,SSW,202,13.8,13.8,92,0.00,CLR,,0.00,WeatherDisplay:10.37,2013-11-06 03:08:00,
2013-11-05 22:13:00,52.7,50.4,30.07,SE,135,10.4,10.4,92,0.00,CLR,,0.00,WeatherDisplay:10.37,2013-11-06 03:13:00,
2013-11-05 22:18:00,52.7,50.4,30.07,South,180,10.4,10.4,92,0.00,CLR,,0.00,WeatherDisplay:10.37,2013-11-06 03:18:00,
2013-11-05 22:23:00,52.7,50.4,30.06,SW,225,8.1,8.1,92,0.00,CLR,,0.00,WeatherDisplay:10.37,2013-11-06 03:23:00,
2013-11-05 22:28:00,52.5,50.0,30.06,South,180,15.0,15.0,91,0.00,CLR,,0.00,WeatherDisplay:10.37,2013-11-06 03:28:00,
2013-11-05 22:33:00,52.7,50.1,30.06,SSW,202,10.4,10.4,91,0.00,CLR,,0.00,WeatherDisplay:10.37,2013-11-06 03:33:00,
2013-11-05 22:38:00,52.7,50.1,30.06,SW,225,12.7,12.7,91,0.00,CLR,,0.00,WeatherDisplay:10.37,2013-11-06 03:38:00,
2013-11-05 22:43:00,52.9,50.0,30.07,South,180,13.8,13.8,90,0.00,CLR,,0.00,WeatherDisplay:10.37,2013-11-06 03:43:00,
2013-11-05 22:48:00,52.9,50.0,30.06,South,180,10.4,10.4,90,0.00,CLR,,0.00,WeatherDisplay:10.37,2013-11-06 03:48:00,
2013-11-05 22:53:00,52.7,49.8,30.05,South,180,8.1,8.1,90,0.00,CLR,,0.00,WeatherDisplay:10.37,2013-11-06 03:53:00,
2013-11-05 22:58:00,52.9,49.7,30.05,SW,225,12.7,12.7,89,0.00,CLR,,0.00,WeatherDisplay:10.37,2013-11-06 03:58:00,
2013-11-05 23:03:00,52.9,49.7,30.04,South,180,12.7,12.7,89,0.00,CLR,,0.00,WeatherDisplay:10.37,2013-11-06 04:03:00,
2013-11-05 23:08:00,52.9,49.4,30.04,South,180,12.7,12.7,88,0.00,CLR,,0.00,WeatherDisplay:10.37,2013-11-06 04:08:00,
2013-11-05 23:13:00,53.1,49.6,30.04,South,180,13.8,13.8,88,0.00,CLR,,0.00,WeatherDisplay:10.37,2013-11-06 04:13:00,
2013-11-05 23:18:00,53.1,49.3,30.04,SE,135,11.5,11.5,87,0.00,CLR,,0.00,WeatherDisplay:10.37,2013-11-06 04:18:00,
2013-11-05 23:23:00,53.1,49.3,30.03,South,180,12.7,12.7,87,0.00,CLR,,0.00,WeatherDisplay:10.37,2013-11-06 04:23:00,
2013-11-05 23:28:00,53.1,49.3,30.03,SW,225,10.4,10.4,87,0.00,CLR,,0.00,WeatherDisplay:10.37,2013-11-06 04:28:00,
2013-11-05 23:33:00,53.1,49.0,30.03,South,180,12.7,12.7,86,0.00,CLR,,0.00,WeatherDisplay:10.37,2013-11-06 04:33:00,
2013-11-05 23:38:00,53.1,49.0,30.03,NNE,22,11.5,11.5,86,0.00,CLR,,0.00,WeatherDisplay:10.37,2013-11-06 04:38:00,
2013-11-05 23:43:00,53.2,49.2,30.03,South,180,16.1,16.1,86,0.00,CLR,,0.00,WeatherDisplay:10.37,2013-11-06 04:43:00,
2013-11-05 23:48:00,53.2,48.8,30.03,NNE,22,11.5,11.5,85,0.00,CLR,,0.00,WeatherDisplay:10.37,2013-11-06 04:48:00,
2013-11-05 23:53:00,53.1,48.7,30.03,SW,225,10.4,10.4,85,0.00,CLR,,0.00,WeatherDisplay:10.37,2013-11-06 04:53:00,
2013-11-05 23:58:00,52.9,48.5,30.03,SSW,202,12.7,12.7,85,0.00,CLR,,0.00,WeatherDisplay:10.37,2013-11-06 04:58:00,